sensor_id;sensor_type;location;lat;lon;timestamp;pressure;altitude;pressure_sealevel;temperature;humidity
10014;BME280;45684;48.358;10.746;2023-04-07T00:00:29;96216.69;;;6.33;87.55
10014;BME280;45684;48.358;10.746;2023-04-07T00:02:57;96223.09;;;6.37;86.50
10014;BME280;45684;48.358;10.746;2023-04-07T00:05:29;96213.53;;;6.50;83.99
10014;BME280;45684;48.358;10.746;2023-04-07T00:07:57;96214.19;;;6.60;81.89
10014;BME280;45684;48.358;10.746;2023-04-07T00:10:24;96215.00;;;6.61;82.36
10014;BME280;45684;48.358;10.746;2023-04-07T00:12:52;96214.59;;;6.73;78.57
10014;BME280;45684;48.358;10.746;2023-04-07T00:15:20;96216.56;;;6.86;74.19
10014;BME280;45684;48.358;10.746;2023-04-07T00:17:48;96210.00;;;6.92;74.58
10014;BME280;45684;48.358;10.746;2023-04-07T00:20:16;96210.50;;;6.94;74.76
10014;BME280;45684;48.358;10.746;2023-04-07T00:22:45;96213.13;;;6.99;74.05
10014;BME280;45684;48.358;10.746;2023-04-07T00:25:13;96206.59;;;7.05;73.21
10014;BME280;45684;48.358;10.746;2023-04-07T00:27:40;96214.13;;;7.03;73.37
10014;BME280;45684;48.358;10.746;2023-04-07T00:30:08;96215.84;;;7.13;74.46
10014;BME280;45684;48.358;10.746;2023-04-07T00:32:36;96218.50;;;7.18;75.49
10014;BME280;45684;48.358;10.746;2023-04-07T00:35:05;96218.19;;;7.20;76.93
10014;BME280;45684;48.358;10.746;2023-04-07T00:37:33;96216.69;;;7.13;77.09
10014;BME280;45684;48.358;10.746;2023-04-07T00:40:03;96215.66;;;7.09;79.48
10014;BME280;45684;48.358;10.746;2023-04-07T00:42:32;96214.34;;;7.07;80.91
10014;BME280;45684;48.358;10.746;2023-04-07T00:45:00;96213.13;;;6.99;84.42
10014;BME280;45684;48.358;10.746;2023-04-07T00:47:28;96217.13;;;7.02;86.29
10014;BME280;45684;48.358;10.746;2023-04-07T00:49:55;96202.81;;;7.06;87.83
10014;BME280;45684;48.358;10.746;2023-04-07T00:52:23;96199.31;;;7.06;89.40
10014;BME280;45684;48.358;10.746;2023-04-07T00:54:55;96191.59;;;6.99;91.95
10014;BME280;45684;48.358;10.746;2023-04-07T00:57:24;96195.78;;;6.92;93.26
10014;BME280;45684;48.358;10.746;2023-04-07T00:59:54;96199.19;;;6.97;93.96
10014;BME280;45684;48.358;10.746;2023-04-07T01:02:27;96199.47;;;6.96;94.85
10014;BME280;45684;48.358;10.746;2023-04-07T01:05:04;96196.78;;;6.96;95.44
10014;BME280;45684;48.358;10.746;2023-04-07T01:07:46;96195.47;;;6.93;96.79
10014;BME280;45684;48.358;10.746;2023-04-07T01:10:21;96194.38;;;6.94;98.64
10014;BME280;45684;48.358;10.746;2023-04-07T01:13:04;96194.19;;;6.90;100.00
10014;BME280;45684;48.358;10.746;2023-04-07T01:15:33;96191.56;;;6.85;100.00
10014;BME280;45684;48.358;10.746;2023-04-07T01:18:08;96181.63;;;6.86;100.00
10014;BME280;45684;48.358;10.746;2023-04-07T01:20:37;96190.41;;;6.92;100.00
10014;BME280;45684;48.358;10.746;2023-04-07T01:23:06;96192.38;;;6.86;100.00
10014;BME280;45684;48.358;10.746;2023-04-07T01:28:48;96183.72;;;6.70;100.00
10014;BME280;45684;48.358;10.746;2023-04-07T01:31:25;96187.88;;;6.62;100.00
10014;BME280;45684;48.358;10.746;2023-04-07T01:33:54;96186.31;;;6.56;100.00
10014;BME280;45684;48.358;10.746;2023-04-07T01:36:25;96189.59;;;6.53;100.00
10014;BME280;45684;48.358;10.746;2023-04-07T01:38:55;96190.44;;;6.30;100.00
10014;BME280;45684;48.358;10.746;2023-04-07T01:41:24;96193.13;;;6.30;100.00
10014;BME280;45684;48.358;10.746;2023-04-07T01:43:53;96186.19;;;6.24;100.00
10014;BME280;45684;48.358;10.746;2023-04-07T01:46:24;96187.66;;;6.16;100.00
10014;BME280;45684;48.358;10.746;2023-04-07T01:48:53;96181.13;;;6.22;100.00
10014;BME280;45684;48.358;10.746;2023-04-07T01:51:22;96186.56;;;6.17;100.00
10014;BME280;45684;48.358;10.746;2023-04-07T01:53:52;96183.34;;;6.15;100.00
10014;BME280;45684;48.358;10.746;2023-04-07T01:56:21;96182.56;;;6.14;100.00
10014;BME280;45684;48.358;10.746;2023-04-07T01:58:51;96178.50;;;6.17;100.00
10014;BME280;45684;48.358;10.746;2023-04-07T02:01:21;96173.72;;;6.14;100.00
10014;BME280;45684;48.358;10.746;2023-04-07T02:03:53;96171.31;;;6.12;100.00
10014;BME280;45684;48.358;10.746;2023-04-07T02:06:31;96172.91;;;6.13;100.00
10014;BME280;45684;48.358;10.746;2023-04-07T02:09:06;96173.38;;;6.21;100.00
10014;BME280;45684;48.358;10.746;2023-04-07T02:11:35;96164.91;;;6.08;100.00
10014;BME280;45684;48.358;10.746;2023-04-07T02:14:05;96160.66;;;6.07;100.00
10014;BME280;45684;48.358;10.746;2023-04-07T02:16:47;96162.75;;;6.10;100.00
10014;BME280;45684;48.358;10.746;2023-04-07T02:19:17;96163.34;;;6.07;100.00
10014;BME280;45684;48.358;10.746;2023-04-07T02:21:45;96154.25;;;6.03;100.00
10014;BME280;45684;48.358;10.746;2023-04-07T02:24:18;96169.81;;;6.01;100.00
10014;BME280;45684;48.358;10.746;2023-04-07T02:26:47;96157.22;;;6.02;100.00
10014;BME280;45684;48.358;10.746;2023-04-07T02:29:14;96159.63;;;6.03;100.00
10014;BME280;45684;48.358;10.746;2023-04-07T02:31:42;96147.84;;;5.99;100.00
10014;BME280;45684;48.358;10.746;2023-04-07T02:34:10;96154.81;;;6.00;100.00
10014;BME280;45684;48.358;10.746;2023-04-07T02:36:39;96153.31;;;5.89;100.00
10014;BME280;45684;48.358;10.746;2023-04-07T02:39:07;96145.81;;;5.86;100.00
10014;BME280;45684;48.358;10.746;2023-04-07T02:41:35;96139.97;;;5.84;100.00
10014;BME280;45684;48.358;10.746;2023-04-07T02:44:03;96140.75;;;5.84;100.00
10014;BME280;45684;48.358;10.746;2023-04-07T02:46:31;96135.63;;;5.88;100.00
10014;BME280;45684;48.358;10.746;2023-04-07T02:48:59;96133.44;;;5.90;100.00
10014;BME280;45684;48.358;10.746;2023-04-07T02:51:27;96132.66;;;5.89;100.00
10014;BME280;45684;48.358;10.746;2023-04-07T02:53:56;96126.78;;;5.87;100.00
10014;BME280;45684;48.358;10.746;2023-04-07T02:56:24;96121.41;;;5.87;100.00
10014;BME280;45684;48.358;10.746;2023-04-07T02:58:52;96127.56;;;5.88;100.00
10014;BME280;45684;48.358;10.746;2023-04-07T03:01:20;96127.56;;;5.88;100.00
10014;BME280;45684;48.358;10.746;2023-04-07T03:03:48;96121.41;;;5.87;100.00
10014;BME280;45684;48.358;10.746;2023-04-07T03:06:20;96115.22;;;5.87;100.00
10014;BME280;45684;48.358;10.746;2023-04-07T03:09:01;96112.53;;;5.87;100.00
10014;BME280;45684;48.358;10.746;2023-04-07T03:11:28;96114.50;;;5.81;100.00
10014;BME280;45684;48.358;10.746;2023-04-07T03:13:58;96116.06;;;5.82;100.00
10014;BME280;45684;48.358;10.746;2023-04-07T03:16:28;96121.44;;;5.82;100.00
10014;BME280;45684;48.358;10.746;2023-04-07T03:19:16;96110.78;;;5.77;100.00
10014;BME280;45684;48.358;10.746;2023-04-07T03:21:47;96105.41;;;5.77;100.00
10014;BME280;45684;48.358;10.746;2023-04-07T03:24:16;96106.22;;;5.78;100.00
10014;BME280;45684;48.358;10.746;2023-04-07T03:26:45;96103.53;;;5.78;100.00
10014;BME280;45684;48.358;10.746;2023-04-07T03:29:32;96094.69;;;5.77;100.00
10014;BME280;45684;48.358;10.746;2023-04-07T03:32:01;96097.38;;;5.77;100.00
10014;BME280;45684;48.358;10.746;2023-04-07T03:34:29;96093.88;;;5.77;100.00
10014;BME280;45684;48.358;10.746;2023-04-07T03:36:57;96093.09;;;5.76;100.00
10014;BME280;45684;48.358;10.746;2023-04-07T03:39:29;96096.34;;;5.73;100.00
10014;BME280;45684;48.358;10.746;2023-04-07T03:41:59;96084.00;;;5.72;100.00
10014;BME280;45684;48.358;10.746;2023-04-07T03:44:30;96087.56;;;5.68;100.00
10014;BME280;45684;48.358;10.746;2023-04-07T03:46:59;96088.88;;;5.70;100.00
10014;BME280;45684;48.358;10.746;2023-04-07T03:49:28;96079.25;;;5.69;100.00
10014;BME280;45684;48.358;10.746;2023-04-07T03:52:00;96080.53;;;5.72;100.00
10014;BME280;45684;48.358;10.746;2023-04-07T03:54:29;96076.56;;;5.69;100.00
10014;BME280;45684;48.358;10.746;2023-04-07T03:56:57;96078.41;;;5.69;100.00
10014;BME280;45684;48.358;10.746;2023-04-07T03:59:25;96073.06;;;5.69;100.00
10014;BME280;45684;48.358;10.746;2023-04-07T04:02:00;96075.16;;;5.72;100.00
10014;BME280;45684;48.358;10.746;2023-04-07T04:04:29;96074.66;;;5.70;100.00
10014;BME280;45684;48.358;10.746;2023-04-07T04:06:57;96073.06;;;5.69;100.00
10014;BME280;45684;48.358;10.746;2023-04-07T04:09:47;96062.84;;;5.71;100.00
10014;BME280;45684;48.358;10.746;2023-04-07T04:12:15;96073.28;;;5.72;100.00
10014;BME280;45684;48.358;10.746;2023-04-07T04:14:57;96068.72;;;5.73;100.00
10014;BME280;45684;48.358;10.746;2023-04-07T04:17:26;96066.63;;;5.70;100.00
10014;BME280;45684;48.358;10.746;2023-04-07T04:19:54;96065.81;;;5.69;100.00
10014;BME280;45684;48.358;10.746;2023-04-07T04:22:30;96063.94;;;5.70;100.00
10014;BME280;45684;48.358;10.746;2023-04-07T04:24:59;96064.97;;;5.74;100.00
10014;BME280;45684;48.358;10.746;2023-04-07T04:27:27;96062.78;;;5.76;100.00
10014;BME280;45684;48.358;10.746;2023-04-07T04:30:03;96065.75;;;5.74;100.00
10014;BME280;45684;48.358;10.746;2023-04-07T04:32:37;96069.75;;;5.77;100.00
10014;BME280;45684;48.358;10.746;2023-04-07T04:35:05;96068.94;;;5.76;100.00
10014;BME280;45684;48.358;10.746;2023-04-07T04:37:41;96072.72;;;5.75;100.00
10014;BME280;45684;48.358;10.746;2023-04-07T04:40:12;96057.19;;;5.72;100.00
10014;BME280;45684;48.358;10.746;2023-04-07T04:42:43;96064.16;;;5.73;100.00
10014;BME280;45684;48.358;10.746;2023-04-07T04:45:11;96066.56;;;5.75;100.00
10014;BME280;45684;48.358;10.746;2023-04-07T04:47:44;96063.56;;;5.76;100.00
10014;BME280;45684;48.358;10.746;2023-04-07T04:50:12;96065.00;;;5.69;100.00
10014;BME280;45684;48.358;10.746;2023-04-07T04:52:41;96062.63;;;5.67;100.00
10014;BME280;45684;48.358;10.746;2023-04-07T04:55:18;96059.63;;;5.69;100.00
10014;BME280;45684;48.358;10.746;2023-04-07T04:57:46;96059.13;;;5.67;100.00
10014;BME280;45684;48.358;10.746;2023-04-07T05:00:20;96065.00;;;5.69;100.00
10014;BME280;45684;48.358;10.746;2023-04-07T05:02:53;96063.41;;;5.68;100.00
10014;BME280;45684;48.358;10.746;2023-04-07T05:05:22;96062.84;;;5.71;100.00
10014;BME280;45684;48.358;10.746;2023-04-07T05:07:52;96054.81;;;5.71;100.00
10014;BME280;45684;48.358;10.746;2023-04-07T05:10:22;96055.59;;;5.71;100.00
10014;BME280;45684;48.358;10.746;2023-04-07T05:12:50;96058.28;;;5.71;100.00
10014;BME280;45684;48.358;10.746;2023-04-07T05:15:18;96055.03;;;5.74;100.00
10014;BME280;45684;48.358;10.746;2023-04-07T05:17:48;96056.38;;;5.72;100.00
10014;BME280;45684;48.358;10.746;2023-04-07T05:20:21;96056.38;;;5.72;100.00
10014;BME280;45684;48.358;10.746;2023-04-07T05:22:49;96053.72;;;5.72;100.00
10014;BME280;45684;48.358;10.746;2023-04-07T05:25:21;96051.03;;;5.72;100.00
10014;BME280;45684;48.358;10.746;2023-04-07T05:27:53;96053.16;;;5.75;100.00
10014;BME280;45684;48.358;10.746;2023-04-07T05:30:21;96036.97;;;5.80;100.00
10014;BME280;45684;48.358;10.746;2023-04-07T05:32:48;96038.28;;;5.82;100.00
10014;BME280;45684;48.358;10.746;2023-04-07T05:35:25;96037.41;;;5.87;100.00
10014;BME280;45684;48.358;10.746;2023-04-07T05:37:55;96040.88;;;5.93;100.00
10014;BME280;45684;48.358;10.746;2023-04-07T05:40:24;96037.09;;;5.94;100.00
10014;BME280;45684;48.358;10.746;2023-04-07T05:42:53;96041.06;;;5.96;100.00
10014;BME280;45684;48.358;10.746;2023-04-07T05:45:22;96039.19;;;5.97;100.00
10014;BME280;45684;48.358;10.746;2023-04-07T05:47:50;96041.06;;;5.96;100.00
10014;BME280;45684;48.358;10.746;2023-04-07T05:50:24;96039.94;;;6.02;100.00
10014;BME280;45684;48.358;10.746;2023-04-07T05:52:53;96038.75;;;6.08;100.00
10014;BME280;45684;48.358;10.746;2023-04-07T05:55:24;96037.59;;;6.14;100.00
10014;BME280;45684;48.358;10.746;2023-04-07T05:57:53;96036.78;;;6.14;100.00
10014;BME280;45684;48.358;10.746;2023-04-07T06:00:24;96037.59;;;6.14;100.00
10014;BME280;45684;48.358;10.746;2023-04-07T06:03:01;96034.84;;;6.20;100.00
10014;BME280;45684;48.358;10.746;2023-04-07T06:05:37;96031.88;;;6.21;100.00
10014;BME280;45684;48.358;10.746;2023-04-07T06:08:10;96035.19;;;6.32;100.00
10014;BME280;45684;48.358;10.746;2023-04-07T06:10:39;96021.31;;;6.25;100.00
10014;BME280;45684;48.358;10.746;2023-04-07T06:13:07;96025.63;;;6.26;100.00
10014;BME280;45684;48.358;10.746;2023-04-07T06:15:35;96026.13;;;6.28;100.00
10014;BME280;45684;48.358;10.746;2023-04-07T06:18:03;96030.41;;;6.29;100.00
10014;BME280;45684;48.358;10.746;2023-04-07T06:20:31;96031.13;;;6.34;100.00
10014;BME280;45684;48.358;10.746;2023-04-07T06:22:59;96035.91;;;6.37;100.00
10014;BME280;45684;48.358;10.746;2023-04-07T06:25:26;96036.13;;;6.41;100.00
10014;BME280;45684;48.358;10.746;2023-04-07T06:27:55;96036.84;;;6.47;100.00
10014;BME280;45684;48.358;10.746;2023-04-07T06:30:23;96029.78;;;6.51;100.00
10014;BME280;45684;48.358;10.746;2023-04-07T06:32:51;96028.03;;;6.60;100.00
10014;BME280;45684;48.358;10.746;2023-04-07T06:35:19;96027.47;;;6.63;100.00
10014;BME280;45684;48.358;10.746;2023-04-07T06:37:47;96028.66;;;6.71;100.00
10014;BME280;45684;48.358;10.746;2023-04-07T06:40:15;96025.00;;;6.80;100.00
10014;BME280;45684;48.358;10.746;2023-04-07T06:42:42;96016.16;;;6.94;100.00
10014;BME280;45684;48.358;10.746;2023-04-07T06:45:21;96031.84;;;7.05;100.00
10014;BME280;45684;48.358;10.746;2023-04-07T06:47:49;96012.81;;;7.15;100.00
10014;BME280;45684;48.358;10.746;2023-04-07T06:50:17;96017.63;;;7.32;100.00
10014;BME280;45684;48.358;10.746;2023-04-07T06:52:47;96019.19;;;7.47;100.00
10014;BME280;45684;48.358;10.746;2023-04-07T06:55:15;96019.00;;;7.57;100.00
10014;BME280;45684;48.358;10.746;2023-04-07T06:57:43;96029.75;;;7.71;100.00
10014;BME280;45684;48.358;10.746;2023-04-07T07:00:11;96023.03;;;7.82;100.00
10014;BME280;45684;48.358;10.746;2023-04-07T07:02:40;96028.72;;;7.95;100.00
10014;BME280;45684;48.358;10.746;2023-04-07T07:05:08;96037.75;;;8.12;100.00
10014;BME280;45684;48.358;10.746;2023-04-07T07:07:36;96031.69;;;8.29;100.00
10014;BME280;45684;48.358;10.746;2023-04-07T07:10:05;96029.69;;;8.49;100.00
10014;BME280;45684;48.358;10.746;2023-04-07T07:12:33;96033.28;;;8.66;100.00
10014;BME280;45684;48.358;10.746;2023-04-07T07:15:01;96032.16;;;8.90;100.00
10014;BME280;45684;48.358;10.746;2023-04-07T07:17:29;96042.25;;;9.07;100.00
10014;BME280;45684;48.358;10.746;2023-04-07T07:19:58;96044.06;;;9.20;100.00
10014;BME280;45684;48.358;10.746;2023-04-07T07:22:26;96050.00;;;9.31;100.00
10014;BME280;45684;48.358;10.746;2023-04-07T07:24:54;96051.97;;;9.48;100.00
10014;BME280;45684;48.358;10.746;2023-04-07T07:27:21;96051.56;;;9.63;100.00
10014;BME280;45684;48.358;10.746;2023-04-07T07:29:49;96043.94;;;9.74;100.00
10014;BME280;45684;48.358;10.746;2023-04-07T07:32:18;96054.19;;;9.94;100.00
10014;BME280;45684;48.358;10.746;2023-04-07T07:34:45;96053.88;;;10.04;100.00
10014;BME280;45684;48.358;10.746;2023-04-07T07:37:14;96054.84;;;10.08;100.00
10014;BME280;45684;48.358;10.746;2023-04-07T07:39:42;96057.06;;;10.15;100.00
10014;BME280;45684;48.358;10.746;2023-04-07T07:42:10;96057.28;;;10.27;100.00
10014;BME280;45684;48.358;10.746;2023-04-07T07:44:38;96044.88;;;10.35;100.00
10014;BME280;45684;48.358;10.746;2023-04-07T07:47:06;96045.84;;;10.39;100.00
10014;BME280;45684;48.358;10.746;2023-04-07T07:49:34;96048.69;;;10.25;100.00
10014;BME280;45684;48.358;10.746;2023-04-07T07:52:01;96045.53;;;10.32;100.00
10014;BME280;45684;48.358;10.746;2023-04-07T07:54:30;96048.69;;;10.34;100.00
10014;BME280;45684;48.358;10.746;2023-04-07T07:56:58;96049.66;;;10.38;100.00
10014;BME280;45684;48.358;10.746;2023-04-07T07:59:28;96050.63;;;10.42;100.00
10014;BME280;45684;48.358;10.746;2023-04-07T08:01:56;96055.41;;;10.45;100.00
10014;BME280;45684;48.358;10.746;2023-04-07T08:04:24;96053.94;;;10.39;100.00
10014;BME280;45684;48.358;10.746;2023-04-07T08:06:52;96051.41;;;10.42;100.00
10014;BME280;45684;48.358;10.746;2023-04-07T08:09:20;96048.38;;;10.27;100.00
10014;BME280;45684;48.358;10.746;2023-04-07T08:11:50;96049.81;;;10.33;100.00
10014;BME280;45684;48.358;10.746;2023-04-07T08:14:18;96050.78;;;10.54;100.00
10014;BME280;45684;48.358;10.746;2023-04-07T08:16:46;96051.25;;;10.73;100.00
10014;BME280;45684;48.358;10.746;2023-04-07T08:19:13;96051.22;;;10.91;100.00
10014;BME280;45684;48.358;10.746;2023-04-07T08:21:41;96055.00;;;11.16;100.00
10014;BME280;45684;48.358;10.746;2023-04-07T08:24:09;96056.81;;;10.68;100.00
10014;BME280;45684;48.358;10.746;2023-04-07T08:26:37;96050.41;;;10.99;100.00
10014;BME280;45684;48.358;10.746;2023-04-07T08:29:06;96052.16;;;10.86;100.00
10014;BME280;45684;48.358;10.746;2023-04-07T08:31:34;96043.31;;;10.68;100.00
10014;BME280;45684;48.358;10.746;2023-04-07T08:34:02;96050.28;;;10.78;100.00
10014;BME280;45684;48.358;10.746;2023-04-07T08:36:30;96048.03;;;10.80;99.15
10014;BME280;45684;48.358;10.746;2023-04-07T08:38:59;96041.16;;;11.00;93.93
10014;BME280;45684;48.358;10.746;2023-04-07T08:41:29;96047.50;;;11.13;91.76
10014;BME280;45684;48.358;10.746;2023-04-07T08:44:00;96048.84;;;11.45;94.20
10014;BME280;45684;48.358;10.746;2023-04-07T08:46:29;96045.69;;;11.43;94.22
10014;BME280;45684;48.358;10.746;2023-04-07T08:48:58;96048.22;;;11.48;89.89
10014;BME280;45684;48.358;10.746;2023-04-07T08:51:28;96048.59;;;11.67;89.71
10014;BME280;45684;48.358;10.746;2023-04-07T08:54:10;96040.84;;;11.57;89.62
10014;BME280;45684;48.358;10.746;2023-04-07T08:56:39;96051.75;;;11.69;87.45
10014;BME280;45684;48.358;10.746;2023-04-07T08:59:09;96048.16;;;11.95;84.15
10014;BME280;45684;48.358;10.746;2023-04-07T09:01:39;96040.97;;;11.99;84.41
10014;BME280;45684;48.358;10.746;2023-04-07T09:04:09;96041.22;;;12.36;83.51
10014;BME280;45684;48.358;10.746;2023-04-07T09:06:37;96036.44;;;12.74;84.33
10014;BME280;45684;48.358;10.746;2023-04-07T09:09:05;96032.00;;;13.03;85.57
10014;BME280;45684;48.358;10.746;2023-04-07T09:11:34;96035.75;;;13.68;81.82
10014;BME280;45684;48.358;10.746;2023-04-07T09:14:02;96041.81;;;14.26;74.78
10014;BME280;45684;48.358;10.746;2023-04-07T09:16:30;96023.38;;;14.72;74.99
10014;BME280;45684;48.358;10.746;2023-04-07T09:19:00;96029.00;;;15.08;68.16
10014;BME280;45684;48.358;10.746;2023-04-07T09:21:46;96031.94;;;15.30;65.97
10014;BME280;45684;48.358;10.746;2023-04-07T09:24:21;96033.59;;;15.19;61.43
10014;BME280;45684;48.358;10.746;2023-04-07T09:26:49;96030.53;;;15.52;66.63
10014;BME280;45684;48.358;10.746;2023-04-07T09:29:19;96028.09;;;15.63;64.75
10014;BME280;45684;48.358;10.746;2023-04-07T09:31:48;96030.41;;;15.77;62.20
10014;BME280;45684;48.358;10.746;2023-04-07T09:34:26;96025.28;;;15.60;61.55
10014;BME280;45684;48.358;10.746;2023-04-07T09:36:54;96031.47;;;15.72;61.94
10014;BME280;45684;48.358;10.746;2023-04-07T09:39:22;96022.75;;;15.82;58.92
10014;BME280;45684;48.358;10.746;2023-04-07T09:41:51;96025.63;;;15.90;57.68
10014;BME280;45684;48.358;10.746;2023-04-07T09:44:19;96024.69;;;15.66;60.19
10014;BME280;45684;48.358;10.746;2023-04-07T09:46:47;96018.06;;;15.51;57.32
10014;BME280;45684;48.358;10.746;2023-04-07T09:49:16;96021.06;;;15.46;63.47
10014;BME280;45684;48.358;10.746;2023-04-07T09:51:54;96020.06;;;15.39;59.18
10014;BME280;45684;48.358;10.746;2023-04-07T09:54:33;96017.50;;;15.14;61.45
10014;BME280;45684;48.358;10.746;2023-04-07T09:57:03;96015.00;;;14.93;57.87
10014;BME280;45684;48.358;10.746;2023-04-07T09:59:32;96028.13;;;14.23;55.47
10014;BME280;45684;48.358;10.746;2023-04-07T10:02:01;96024.72;;;14.26;55.42
10014;BME280;45684;48.358;10.746;2023-04-07T10:04:29;96025.50;;;14.51;57.41
10014;BME280;45684;48.358;10.746;2023-04-07T10:06:59;96016.19;;;14.52;58.02
10014;BME280;45684;48.358;10.746;2023-04-07T10:09:29;96015.09;;;14.16;62.72
10014;BME280;45684;48.358;10.746;2023-04-07T10:11:58;96016.66;;;14.29;63.80
10014;BME280;45684;48.358;10.746;2023-04-07T10:14:30;96021.38;;;14.57;62.34
10014;BME280;45684;48.358;10.746;2023-04-07T10:16:59;96006.00;;;14.49;61.28
10014;BME280;45684;48.358;10.746;2023-04-07T10:19:30;96004.56;;;14.67;67.13
10014;BME280;45684;48.358;10.746;2023-04-07T10:22:02;96010.16;;;14.87;64.15
10014;BME280;45684;48.358;10.746;2023-04-07T10:24:43;96015.97;;;15.01;62.25
10014;BME280;45684;48.358;10.746;2023-04-07T10:27:17;96010.22;;;15.02;59.43
10014;BME280;45684;48.358;10.746;2023-04-07T10:29:49;96010.47;;;14.97;59.59
10014;BME280;45684;48.358;10.746;2023-04-07T10:32:18;96016.94;;;14.93;58.81
10014;BME280;45684;48.358;10.746;2023-04-07T10:34:56;96029.84;;;14.68;57.71
10014;BME280;45684;48.358;10.746;2023-04-07T10:37:26;96019.63;;;14.12;61.44
10014;BME280;45684;48.358;10.746;2023-04-07T10:40:26;96020.91;;;14.15;59.72
10014;BME280;45684;48.358;10.746;2023-04-07T10:42:54;96024.84;;;14.17;62.92
10014;BME280;45684;48.358;10.746;2023-04-07T10:45:50;96021.28;;;13.76;68.24
10014;BME280;45684;48.358;10.746;2023-04-07T10:48:19;96027.38;;;13.86;69.31
10014;BME280;45684;48.358;10.746;2023-04-07T10:51:15;96029.19;;;13.82;66.92
10014;BME280;45684;48.358;10.746;2023-04-07T10:54:15;96023.53;;;13.74;67.82
10014;BME280;45684;48.358;10.746;2023-04-07T10:57:08;96014.34;;;14.03;68.91
10014;BME280;45684;48.358;10.746;2023-04-07T10:59:39;96017.94;;;14.20;70.92
10014;BME280;45684;48.358;10.746;2023-04-07T11:02:29;96021.09;;;14.22;71.18
10014;BME280;45684;48.358;10.746;2023-04-07T11:04:58;96020.66;;;14.20;68.15
10014;BME280;45684;48.358;10.746;2023-04-07T11:07:44;96018.41;;;14.10;73.73
10014;BME280;45684;48.358;10.746;2023-04-07T11:10:14;96023.41;;;13.95;65.92
10014;BME280;45684;48.358;10.746;2023-04-07T11:13:00;96027.16;;;13.66;64.21
10014;BME280;45684;48.358;10.746;2023-04-07T11:15:28;96026.22;;;13.38;66.03
10014;BME280;45684;48.358;10.746;2023-04-07T11:18:20;96023.72;;;13.33;71.96
10014;BME280;45684;48.358;10.746;2023-04-07T11:20:51;96026.41;;;13.20;65.40
10014;BME280;45684;48.358;10.746;2023-04-07T11:23:21;96023.97;;;13.07;67.85
10014;BME280;45684;48.358;10.746;2023-04-07T11:25:58;96020.38;;;12.82;68.72
10014;BME280;45684;48.358;10.746;2023-04-07T11:28:27;96014.25;;;12.72;71.79
10014;BME280;45684;48.358;10.746;2023-04-07T11:30:55;96017.84;;;12.97;73.98
10014;BME280;45684;48.358;10.746;2023-04-07T11:33:25;96019.34;;;13.19;71.59
10014;BME280;45684;48.358;10.746;2023-04-07T11:35:56;96021.59;;;13.38;70.74
10014;BME280;45684;48.358;10.746;2023-04-07T11:38:26;96017.63;;;13.60;73.73
10014;BME280;45684;48.358;10.746;2023-04-07T11:40:56;96025.09;;;13.88;72.41
10014;BME280;45684;48.358;10.746;2023-04-07T11:43:25;96022.59;;;14.07;68.94
10014;BME280;45684;48.358;10.746;2023-04-07T11:46:06;96018.78;;;13.71;66.32
10014;BME280;45684;48.358;10.746;2023-04-07T11:48:35;96022.38;;;13.75;65.20
10014;BME280;45684;48.358;10.746;2023-04-07T11:51:04;96018.22;;;13.78;64.37
10014;BME280;45684;48.358;10.746;2023-04-07T11:53:34;96011.78;;;15.03;60.19
10014;BME280;45684;48.358;10.746;2023-04-07T11:56:06;96021.06;;;15.94;61.35
10014;BME280;45684;48.358;10.746;2023-04-07T11:58:35;96024.34;;;15.84;51.82
10014;BME280;45684;48.358;10.746;2023-04-07T12:01:05;96019.97;;;16.14;51.60
10014;BME280;45684;48.358;10.746;2023-04-07T12:03:35;96016.66;;;16.05;52.95
10014;BME280;45684;48.358;10.746;2023-04-07T12:06:03;96018.38;;;16.13;54.32
10014;BME280;45684;48.358;10.746;2023-04-07T12:08:39;96015.22;;;16.11;54.59
10014;BME280;45684;48.358;10.746;2023-04-07T12:11:09;96014.56;;;15.82;52.65
10014;BME280;45684;48.358;10.746;2023-04-07T12:13:37;96022.84;;;15.70;51.02
10014;BME280;45684;48.358;10.746;2023-04-07T12:16:05;96017.19;;;15.63;54.46
10014;BME280;45684;48.358;10.746;2023-04-07T12:18:32;96020.63;;;15.60;55.07
10014;BME280;45684;48.358;10.746;2023-04-07T12:21:00;96024.66;;;15.35;52.88
10014;BME280;45684;48.358;10.746;2023-04-07T12:23:28;96022.00;;;14.78;54.00
10014;BME280;45684;48.358;10.746;2023-04-07T12:25:56;96027.28;;;14.47;55.70
10014;BME280;45684;48.358;10.746;2023-04-07T12:28:25;96023.47;;;14.48;59.62
10014;BME280;45684;48.358;10.746;2023-04-07T12:30:54;96029.00;;;14.39;61.60
10014;BME280;45684;48.358;10.746;2023-04-07T12:33:22;96029.91;;;14.31;62.62
10014;BME280;45684;48.358;10.746;2023-04-07T12:35:50;96029.72;;;14.24;61.19
10014;BME280;45684;48.358;10.746;2023-04-07T12:38:17;96019.50;;;14.33;60.74
10014;BME280;45684;48.358;10.746;2023-04-07T12:40:45;96020.28;;;14.34;59.33
10014;BME280;45684;48.358;10.746;2023-04-07T12:43:13;96024.16;;;14.20;59.34
10014;BME280;45684;48.358;10.746;2023-04-07T12:45:42;96019.44;;;14.70;57.17
10014;BME280;45684;48.358;10.746;2023-04-07T12:48:10;96017.75;;;14.93;56.42
10014;BME280;45684;48.358;10.746;2023-04-07T12:50:38;96012.94;;;15.02;55.29
10014;BME280;45684;48.358;10.746;2023-04-07T12:53:05;96009.78;;;15.48;55.11
10014;BME280;45684;48.358;10.746;2023-04-07T12:55:34;96009.53;;;15.85;54.17
10014;BME280;45684;48.358;10.746;2023-04-07T12:58:03;96013.88;;;15.70;51.94
10014;BME280;45684;48.358;10.746;2023-04-07T13:00:31;95999.44;;;15.69;50.28
10014;BME280;45684;48.358;10.746;2023-04-07T13:03:00;96010.31;;;16.01;51.37
10014;BME280;45684;48.358;10.746;2023-04-07T13:05:29;96011.84;;;16.33;51.76
10014;BME280;45684;48.358;10.746;2023-04-07T13:07:56;96015.75;;;16.17;47.57
10014;BME280;45684;48.358;10.746;2023-04-07T13:10:25;96011.47;;;16.00;46.89